Etusivu
METAR-TAF:

METAR-TAF

Lentoasemat :

Midland, Michigan, Yhdysvallat

Leveyspiiri: 43-39-46N, Pituuspiiri: 084-15-41W, korkeus merenpinnasta: 194 m

Tämänhetkinen sää

Tämä raportti tehtiin 21 minuuttia sitten, kello 13.36 UTC
Tuuli 3 kn luoteesta
Lämpötila 19°C
Kosteus 83%
Ilmanpaine 1009 hPa
Näkyvyys: 16.1 km
Hajanaisia pilviä 4500 ft:n korkeudessa
Hajanaisia pilviä 5000 ft:n korkeudessa
Hajonneita pilviä 7000 ft:n korkeudessa

METAR: KIKW 191336Z AUTO 32003KT 10SM SCT045 SCT050 BKN070 19/16 A2980 RMK AO2 T01930162

Aika: 09:57 (13:57 UTC)


TAF: puuttuu

Säähavainnot ja -ennusteet yli 4000 lentoasemalta (METAR- ja TAF-raportit).

Käytössä olevat sääasemat on merkitty karttaan keltaisilla ja punaisilla pisteillä.

Aseta hiiri pisteen päälle nähdäksesi sääaseman nimen.

Klikkaa sitten nähdäksesi säähavainnot ja -ennusteet.

Kartan vaihtaminen: klikkaa mustalla rastilla varustettuja vihreitä pisteitä, niin voit zoomata sisään; viivalla varustettua vihreää pistettä, niin voit zoomata ulos tai vihreitä nuolia, niin pääset viereisille kartoille.


METAR-TAF: